sensor_id;sensor_type;location;lat;lon;timestamp;P1;durP1;ratioP1;P2;durP2;ratioP2
43905;SDS011;29564;46.622;13.818;2023-12-28T00:00:26;15.20;;;4.45;;
43905;SDS011;29564;46.622;13.818;2023-12-28T00:01:27;20.23;;;6.20;;
43905;SDS011;29564;46.622;13.818;2023-12-28T00:02:29;10.45;;;4.43;;
43905;SDS011;29564;46.622;13.818;2023-12-28T00:03:30;13.45;;;4.38;;
43905;SDS011;29564;46.622;13.818;2023-12-28T00:04:31;11.23;;;4.22;;
43905;SDS011;29564;46.622;13.818;2023-12-28T00:05:35;9.07;;;3.58;;
43905;SDS011;29564;46.622;13.818;2023-12-28T00:06:36;11.93;;;4.68;;
43905;SDS011;29564;46.622;13.818;2023-12-28T00:07:37;7.47;;;3.50;;
43905;SDS011;29564;46.622;13.818;2023-12-28T00:08:39;8.05;;;3.72;;
43905;SDS011;29564;46.622;13.818;2023-12-28T00:09:41;9.18;;;4.60;;
43905;SDS011;29564;46.622;13.818;2023-12-28T00:10:42;12.05;;;5.35;;
43905;SDS011;29564;46.622;13.818;2023-12-28T00:11:44;13.73;;;4.72;;
43905;SDS011;29564;46.622;13.818;2023-12-28T00:12:45;12.52;;;4.57;;
43905;SDS011;29564;46.622;13.818;2023-12-28T00:13:46;10.82;;;4.28;;
43905;SDS011;29564;46.622;13.818;2023-12-28T00:14:48;11.50;;;4.10;;
43905;SDS011;29564;46.622;13.818;2023-12-28T00:15:49;9.68;;;3.58;;
43905;SDS011;29564;46.622;13.818;2023-12-28T00:16:50;10.25;;;3.97;;
43905;SDS011;29564;46.622;13.818;2023-12-28T00:17:52;7.93;;;2.85;;
43905;SDS011;29564;46.622;13.818;2023-12-28T00:18:53;8.57;;;3.28;;
43905;SDS011;29564;46.622;13.818;2023-12-28T00:19:54;8.55;;;2.55;;
43905;SDS011;29564;46.622;13.818;2023-12-28T00:20:55;8.00;;;3.33;;
43905;SDS011;29564;46.622;13.818;2023-12-28T00:21:57;6.53;;;2.72;;
43905;SDS011;29564;46.622;13.818;2023-12-28T00:22:58;8.93;;;3.63;;
43905;SDS011;29564;46.622;13.818;2023-12-28T00:24:01;7.47;;;2.97;;
43905;SDS011;29564;46.622;13.818;2023-12-28T00:25:02;5.55;;;2.58;;
43905;SDS011;29564;46.622;13.818;2023-12-28T00:26:07;5.57;;;2.42;;
43905;SDS011;29564;46.622;13.818;2023-12-28T00:27:08;6.70;;;3.05;;
43905;SDS011;29564;46.622;13.818;2023-12-28T00:28:09;7.28;;;2.78;;
43905;SDS011;29564;46.622;13.818;2023-12-28T00:29:11;6.45;;;2.60;;
43905;SDS011;29564;46.622;13.818;2023-12-28T00:30:12;9.25;;;3.40;;
43905;SDS011;29564;46.622;13.818;2023-12-28T00:31:14;7.63;;;2.38;;
43905;SDS011;29564;46.622;13.818;2023-12-28T00:32:15;10.05;;;4.00;;
43905;SDS011;29564;46.622;13.818;2023-12-28T00:33:16;12.07;;;2.60;;
43905;SDS011;29564;46.622;13.818;2023-12-28T00:34:18;6.78;;;3.20;;
43905;SDS011;29564;46.622;13.818;2023-12-28T00:35:19;7.43;;;2.72;;
43905;SDS011;29564;46.622;13.818;2023-12-28T00:36:20;6.10;;;2.65;;
43905;SDS011;29564;46.622;13.818;2023-12-28T00:37:22;7.57;;;2.95;;
43905;SDS011;29564;46.622;13.818;2023-12-28T00:38:23;12.27;;;3.83;;
43905;SDS011;29564;46.622;13.818;2023-12-28T00:39:24;5.22;;;2.60;;
43905;SDS011;29564;46.622;13.818;2023-12-28T00:40:26;10.82;;;5.07;;
43905;SDS011;29564;46.622;13.818;2023-12-28T00:41:27;9.93;;;3.90;;
43905;SDS011;29564;46.622;13.818;2023-12-28T00:42:28;8.63;;;4.15;;
43905;SDS011;29564;46.622;13.818;2023-12-28T00:43:29;5.85;;;3.67;;
43905;SDS011;29564;46.622;13.818;2023-12-28T00:44:31;6.25;;;3.47;;
43905;SDS011;29564;46.622;13.818;2023-12-28T00:45:32;6.93;;;3.58;;
43905;SDS011;29564;46.622;13.818;2023-12-28T00:46:33;6.88;;;3.28;;
43905;SDS011;29564;46.622;13.818;2023-12-28T00:47:35;8.20;;;3.85;;
43905;SDS011;29564;46.622;13.818;2023-12-28T00:48:36;8.40;;;3.40;;
43905;SDS011;29564;46.622;13.818;2023-12-28T00:49:37;9.48;;;3.40;;
43905;SDS011;29564;46.622;13.818;2023-12-28T00:50:39;11.57;;;4.28;;
43905;SDS011;29564;46.622;13.818;2023-12-28T00:51:40;11.02;;;4.38;;
43905;SDS011;29564;46.622;13.818;2023-12-28T00:52:41;7.40;;;3.10;;
43905;SDS011;29564;46.622;13.818;2023-12-28T00:53:42;9.55;;;3.95;;
43905;SDS011;29564;46.622;13.818;2023-12-28T00:54:44;8.93;;;3.35;;
43905;SDS011;29564;46.622;13.818;2023-12-28T00:55:45;9.38;;;2.95;;
43905;SDS011;29564;46.622;13.818;2023-12-28T00:56:46;6.63;;;1.58;;
43905;SDS011;29564;46.622;13.818;2023-12-28T00:57:48;8.77;;;3.97;;
43905;SDS011;29564;46.622;13.818;2023-12-28T00:58:49;7.40;;;3.75;;
43905;SDS011;29564;46.622;13.818;2023-12-28T00:59:50;11.07;;;3.38;;
43905;SDS011;29564;46.622;13.818;2023-12-28T01:00:51;5.93;;;2.50;;
43905;SDS011;29564;46.622;13.818;2023-12-28T01:01:56;3.78;;;2.13;;
43905;SDS011;29564;46.622;13.818;2023-12-28T01:02:58;5.55;;;2.42;;
43905;SDS011;29564;46.622;13.818;2023-12-28T01:03:59;5.95;;;3.00;;
43905;SDS011;29564;46.622;13.818;2023-12-28T01:05:00;8.45;;;4.47;;
43905;SDS011;29564;46.622;13.818;2023-12-28T01:06:02;8.25;;;3.70;;
43905;SDS011;29564;46.622;13.818;2023-12-28T01:07:03;7.80;;;4.03;;
43905;SDS011;29564;46.622;13.818;2023-12-28T01:08:06;8.27;;;3.55;;
43905;SDS011;29564;46.622;13.818;2023-12-28T01:09:07;10.32;;;5.15;;
43905;SDS011;29564;46.622;13.818;2023-12-28T01:10:09;9.07;;;4.10;;
43905;SDS011;29564;46.622;13.818;2023-12-28T01:11:10;9.68;;;5.63;;
43905;SDS011;29564;46.622;13.818;2023-12-28T01:12:12;8.85;;;4.95;;
43905;SDS011;29564;46.622;13.818;2023-12-28T01:13:14;7.53;;;3.92;;
43905;SDS011;29564;46.622;13.818;2023-12-28T01:14:15;11.45;;;4.65;;
43905;SDS011;29564;46.622;13.818;2023-12-28T01:15:16;11.35;;;4.82;;
43905;SDS011;29564;46.622;13.818;2023-12-28T01:16:18;7.65;;;4.65;;
43905;SDS011;29564;46.622;13.818;2023-12-28T01:17:19;7.35;;;3.70;;
43905;SDS011;29564;46.622;13.818;2023-12-28T01:18:20;7.90;;;3.67;;
43905;SDS011;29564;46.622;13.818;2023-12-28T01:19:22;6.20;;;2.97;;
43905;SDS011;29564;46.622;13.818;2023-12-28T01:20:24;4.40;;;2.47;;
43905;SDS011;29564;46.622;13.818;2023-12-28T01:21:25;3.63;;;2.72;;
43905;SDS011;29564;46.622;13.818;2023-12-28T01:22:26;5.45;;;2.50;;
43905;SDS011;29564;46.622;13.818;2023-12-28T01:23:28;4.85;;;2.35;;
43905;SDS011;29564;46.622;13.818;2023-12-28T01:24:29;7.50;;;2.60;;
43905;SDS011;29564;46.622;13.818;2023-12-28T01:25:30;9.10;;;4.82;;
43905;SDS011;29564;46.622;13.818;2023-12-28T01:26:32;9.30;;;3.03;;
43905;SDS011;29564;46.622;13.818;2023-12-28T01:27:35;7.00;;;2.05;;
43905;SDS011;29564;46.622;13.818;2023-12-28T01:28:36;5.50;;;2.70;;
43905;SDS011;29564;46.622;13.818;2023-12-28T01:29:38;4.32;;;2.35;;
43905;SDS011;29564;46.622;13.818;2023-12-28T01:30:39;4.68;;;2.60;;
43905;SDS011;29564;46.622;13.818;2023-12-28T01:31:40;8.57;;;2.85;;
43905;SDS011;29564;46.622;13.818;2023-12-28T01:32:41;6.22;;;3.03;;
43905;SDS011;29564;46.622;13.818;2023-12-28T01:33:43;7.65;;;3.65;;
43905;SDS011;29564;46.622;13.818;2023-12-28T01:34:45;4.97;;;3.15;;
43905;SDS011;29564;46.622;13.818;2023-12-28T01:35:46;8.05;;;3.47;;
43905;SDS011;29564;46.622;13.818;2023-12-28T01:36:47;5.47;;;2.78;;
43905;SDS011;29564;46.622;13.818;2023-12-28T01:37:49;8.57;;;3.78;;
43905;SDS011;29564;46.622;13.818;2023-12-28T01:38:50;11.60;;;3.95;;
43905;SDS011;29564;46.622;13.818;2023-12-28T01:39:51;9.15;;;3.92;;
43905;SDS011;29564;46.622;13.818;2023-12-28T01:40:52;12.57;;;4.82;;
43905;SDS011;29564;46.622;13.818;2023-12-28T01:41:54;10.48;;;3.63;;
43905;SDS011;29564;46.622;13.818;2023-12-28T01:42:56;10.32;;;3.67;;
43905;SDS011;29564;46.622;13.818;2023-12-28T01:43:57;14.40;;;4.97;;
43905;SDS011;29564;46.622;13.818;2023-12-28T01:44:58;13.30;;;4.50;;
43905;SDS011;29564;46.622;13.818;2023-12-28T01:45:59;16.42;;;4.20;;
43905;SDS011;29564;46.622;13.818;2023-12-28T01:47:01;10.13;;;4.50;;
43905;SDS011;29564;46.622;13.818;2023-12-28T01:48:03;6.30;;;2.38;;
43905;SDS011;29564;46.622;13.818;2023-12-28T01:49:05;6.72;;;3.22;;
43905;SDS011;29564;46.622;13.818;2023-12-28T01:50:06;7.32;;;2.67;;
43905;SDS011;29564;46.622;13.818;2023-12-28T01:51:08;5.53;;;1.92;;
43905;SDS011;29564;46.622;13.818;2023-12-28T01:52:09;5.72;;;2.40;;
43905;SDS011;29564;46.622;13.818;2023-12-28T01:53:11;8.23;;;3.90;;
43905;SDS011;29564;46.622;13.818;2023-12-28T01:54:13;6.53;;;3.47;;
43905;SDS011;29564;46.622;13.818;2023-12-28T01:55:14;10.70;;;3.88;;
43905;SDS011;29564;46.622;13.818;2023-12-28T01:56:17;7.88;;;3.15;;
43905;SDS011;29564;46.622;13.818;2023-12-28T01:57:19;7.85;;;3.65;;
43905;SDS011;29564;46.622;13.818;2023-12-28T01:58:21;10.13;;;4.03;;
43905;SDS011;29564;46.622;13.818;2023-12-28T01:59:23;7.15;;;3.97;;
43905;SDS011;29564;46.622;13.818;2023-12-28T02:00:24;9.43;;;3.33;;
43905;SDS011;29564;46.622;13.818;2023-12-28T02:01:26;9.15;;;4.22;;
43905;SDS011;29564;46.622;13.818;2023-12-28T02:02:27;5.82;;;3.05;;
43905;SDS011;29564;46.622;13.818;2023-12-28T02:03:30;8.43;;;3.15;;
43905;SDS011;29564;46.622;13.818;2023-12-28T02:04:32;6.75;;;2.97;;
43905;SDS011;29564;46.622;13.818;2023-12-28T02:05:34;6.70;;;2.83;;
43905;SDS011;29564;46.622;13.818;2023-12-28T02:06:36;8.18;;;2.92;;
43905;SDS011;29564;46.622;13.818;2023-12-28T02:07:37;6.15;;;2.08;;
43905;SDS011;29564;46.622;13.818;2023-12-28T02:08:38;4.55;;;2.67;;
43905;SDS011;29564;46.622;13.818;2023-12-28T02:09:40;7.00;;;2.72;;
43905;SDS011;29564;46.622;13.818;2023-12-28T02:10:41;7.43;;;2.17;;
43905;SDS011;29564;46.622;13.818;2023-12-28T02:11:42;6.93;;;1.77;;
43905;SDS011;29564;46.622;13.818;2023-12-28T02:12:44;4.15;;;2.53;;
43905;SDS011;29564;46.622;13.818;2023-12-28T02:13:45;3.90;;;2.08;;
43905;SDS011;29564;46.622;13.818;2023-12-28T02:14:47;3.00;;;1.77;;
43905;SDS011;29564;46.622;13.818;2023-12-28T02:15:51;3.40;;;1.98;;
43905;SDS011;29564;46.622;13.818;2023-12-28T02:17:06;2.60;;;2.10;;
43905;SDS011;29564;46.622;13.818;2023-12-28T02:18:19;3.15;;;1.67;;
43905;SDS011;29564;46.622;13.818;2023-12-28T02:20:40;2.60;;;1.13;;
43905;SDS011;29564;46.622;13.818;2023-12-28T02:21:43;3.15;;;1.65;;
43905;SDS011;29564;46.622;13.818;2023-12-28T02:22:45;2.40;;;1.23;;
43905;SDS011;29564;46.622;13.818;2023-12-28T02:23:47;3.85;;;2.00;;
43905;SDS011;29564;46.622;13.818;2023-12-28T02:24:57;3.10;;;1.90;;
43905;SDS011;29564;46.622;13.818;2023-12-28T02:25:59;4.10;;;1.73;;
43905;SDS011;29564;46.622;13.818;2023-12-28T02:27:00;2.22;;;1.33;;
43905;SDS011;29564;46.622;13.818;2023-12-28T02:28:01;2.28;;;1.42;;
43905;SDS011;29564;46.622;13.818;2023-12-28T02:29:03;3.15;;;1.80;;
43905;SDS011;29564;46.622;13.818;2023-12-28T02:30:05;3.35;;;1.58;;
43905;SDS011;29564;46.622;13.818;2023-12-28T02:31:09;2.67;;;2.40;;
43905;SDS011;29564;46.622;13.818;2023-12-28T02:32:17;2.30;;;1.30;;
43905;SDS011;29564;46.622;13.818;2023-12-28T02:34:33;2.17;;;1.30;;
43905;SDS011;29564;46.622;13.818;2023-12-28T02:36:44;6.03;;;2.92;;
43905;SDS011;29564;46.622;13.818;2023-12-28T02:37:48;5.10;;;2.13;;
43905;SDS011;29564;46.622;13.818;2023-12-28T02:38:53;4.88;;;2.08;;
43905;SDS011;29564;46.622;13.818;2023-12-28T02:39:58;2.50;;;1.63;;
43905;SDS011;29564;46.622;13.818;2023-12-28T02:41:00;3.30;;;1.48;;
43905;SDS011;29564;46.622;13.818;2023-12-28T02:42:02;4.68;;;2.03;;
43905;SDS011;29564;46.622;13.818;2023-12-28T02:43:07;3.28;;;1.83;;
43905;SDS011;29564;46.622;13.818;2023-12-28T02:44:09;3.28;;;1.92;;
43905;SDS011;29564;46.622;13.818;2023-12-28T02:45:11;3.35;;;1.50;;
43905;SDS011;29564;46.622;13.818;2023-12-28T02:46:12;4.55;;;1.90;;
43905;SDS011;29564;46.622;13.818;2023-12-28T02:47:13;6.70;;;3.60;;
43905;SDS011;29564;46.622;13.818;2023-12-28T02:48:15;6.15;;;2.58;;
43905;SDS011;29564;46.622;13.818;2023-12-28T02:49:16;2.70;;;2.30;;
43905;SDS011;29564;46.622;13.818;2023-12-28T02:50:18;5.18;;;1.88;;
43905;SDS011;29564;46.622;13.818;2023-12-28T02:51:19;3.53;;;2.08;;
43905;SDS011;29564;46.622;13.818;2023-12-28T02:52:20;5.30;;;2.22;;
43905;SDS011;29564;46.622;13.818;2023-12-28T02:53:22;4.68;;;2.15;;
43905;SDS011;29564;46.622;13.818;2023-12-28T02:54:23;5.18;;;2.60;;
43905;SDS011;29564;46.622;13.818;2023-12-28T02:55:24;3.17;;;2.05;;
43905;SDS011;29564;46.622;13.818;2023-12-28T02:56:26;3.72;;;2.45;;
43905;SDS011;29564;46.622;13.818;2023-12-28T02:57:27;6.45;;;2.47;;
43905;SDS011;29564;46.622;13.818;2023-12-28T02:58:28;3.35;;;1.80;;
43905;SDS011;29564;46.622;13.818;2023-12-28T02:59:30;3.30;;;1.85;;
43905;SDS011;29564;46.622;13.818;2023-12-28T03:00:31;3.47;;;2.13;;
43905;SDS011;29564;46.622;13.818;2023-12-28T03:01:32;4.32;;;1.33;;
43905;SDS011;29564;46.622;13.818;2023-12-28T03:02:34;3.00;;;1.83;;
43905;SDS011;29564;46.622;13.818;2023-12-28T03:03:37;5.22;;;2.78;;
43905;SDS011;29564;46.622;13.818;2023-12-28T03:04:39;3.78;;;2.20;;
43905;SDS011;29564;46.622;13.818;2023-12-28T03:05:40;5.68;;;2.13;;
43905;SDS011;29564;46.622;13.818;2023-12-28T03:06:42;1.83;;;1.45;;
43905;SDS011;29564;46.622;13.818;2023-12-28T03:07:47;4.40;;;1.88;;
43905;SDS011;29564;46.622;13.818;2023-12-28T03:08:48;3.33;;;1.67;;
43905;SDS011;29564;46.622;13.818;2023-12-28T03:09:49;1.92;;;1.25;;
43905;SDS011;29564;46.622;13.818;2023-12-28T03:10:51;3.40;;;2.03;;
43905;SDS011;29564;46.622;13.818;2023-12-28T03:11:53;3.25;;;1.98;;
43905;SDS011;29564;46.622;13.818;2023-12-28T03:12:54;5.88;;;2.42;;
43905;SDS011;29564;46.622;13.818;2023-12-28T03:13:56;8.27;;;3.47;;
43905;SDS011;29564;46.622;13.818;2023-12-28T03:14:57;3.70;;;2.20;;
43905;SDS011;29564;46.622;13.818;2023-12-28T03:15:58;3.60;;;1.88;;
43905;SDS011;29564;46.622;13.818;2023-12-28T03:17:00;4.35;;;2.03;;
43905;SDS011;29564;46.622;13.818;2023-12-28T03:18:01;5.45;;;2.95;;
43905;SDS011;29564;46.622;13.818;2023-12-28T03:19:02;2.42;;;1.85;;
43905;SDS011;29564;46.622;13.818;2023-12-28T03:20:04;1.67;;;1.45;;
43905;SDS011;29564;46.622;13.818;2023-12-28T03:21:06;2.85;;;1.70;;
43905;SDS011;29564;46.622;13.818;2023-12-28T03:22:07;2.17;;;1.48;;
43905;SDS011;29564;46.622;13.818;2023-12-28T03:23:08;2.25;;;1.75;;
43905;SDS011;29564;46.622;13.818;2023-12-28T03:24:11;7.30;;;1.67;;
43905;SDS011;29564;46.622;13.818;2023-12-28T03:25:13;2.72;;;1.77;;
43905;SDS011;29564;46.622;13.818;2023-12-28T03:26:15;3.38;;;2.00;;
43905;SDS011;29564;46.622;13.818;2023-12-28T03:27:16;3.45;;;2.03;;
43905;SDS011;29564;46.622;13.818;2023-12-28T03:28:18;6.63;;;2.38;;
43905;SDS011;29564;46.622;13.818;2023-12-28T03:29:19;7.15;;;3.30;;
43905;SDS011;29564;46.622;13.818;2023-12-28T03:30:21;4.80;;;2.75;;
43905;SDS011;29564;46.622;13.818;2023-12-28T03:31:22;4.10;;;2.20;;
43905;SDS011;29564;46.622;13.818;2023-12-28T03:32:23;3.30;;;2.38;;
43905;SDS011;29564;46.622;13.818;2023-12-28T03:33:25;3.92;;;2.40;;
43905;SDS011;29564;46.622;13.818;2023-12-28T03:34:27;3.95;;;2.20;;
43905;SDS011;29564;46.622;13.818;2023-12-28T03:35:30;3.40;;;1.60;;
43905;SDS011;29564;46.622;13.818;2023-12-28T03:36:31;2.97;;;1.65;;
43905;SDS011;29564;46.622;13.818;2023-12-28T03:37:33;3.95;;;1.70;;
43905;SDS011;29564;46.622;13.818;2023-12-28T03:38:35;2.75;;;1.77;;
43905;SDS011;29564;46.622;13.818;2023-12-28T03:39:36;3.58;;;2.30;;
43905;SDS011;29564;46.622;13.818;2023-12-28T03:40:38;4.22;;;2.38;;
43905;SDS011;29564;46.622;13.818;2023-12-28T03:41:39;5.75;;;2.35;;
43905;SDS011;29564;46.622;13.818;2023-12-28T03:42:40;6.20;;;2.55;;
43905;SDS011;29564;46.622;13.818;2023-12-28T03:43:42;4.75;;;1.60;;
43905;SDS011;29564;46.622;13.818;2023-12-28T03:44:43;3.20;;;2.15;;
43905;SDS011;29564;46.622;13.818;2023-12-28T03:45:45;4.38;;;2.47;;
43905;SDS011;29564;46.622;13.818;2023-12-28T03:46:47;10.80;;;3.47;;
43905;SDS011;29564;46.622;13.818;2023-12-28T03:47:49;9.98;;;3.80;;
43905;SDS011;29564;46.622;13.818;2023-12-28T03:48:52;11.07;;;4.80;;
43905;SDS011;29564;46.622;13.818;2023-12-28T03:49:53;9.82;;;4.20;;
43905;SDS011;29564;46.622;13.818;2023-12-28T03:50:57;2.53;;;1.75;;
43905;SDS011;29564;46.622;13.818;2023-12-28T03:51:59;2.38;;;1.58;;
43905;SDS011;29564;46.622;13.818;2023-12-28T03:53:00;3.17;;;2.13;;
43905;SDS011;29564;46.622;13.818;2023-12-28T03:54:01;3.20;;;1.50;;
43905;SDS011;29564;46.622;13.818;2023-12-28T03:55:03;4.57;;;1.33;;
43905;SDS011;29564;46.622;13.818;2023-12-28T03:56:04;3.05;;;1.52;;
43905;SDS011;29564;46.622;13.818;2023-12-28T03:57:06;1.50;;;0.95;;
43905;SDS011;29564;46.622;13.818;2023-12-28T03:58:07;1.83;;;1.55;;
43905;SDS011;29564;46.622;13.818;2023-12-28T03:59:08;3.45;;;1.45;;
43905;SDS011;29564;46.622;13.818;2023-12-28T04:00:10;3.63;;;1.80;;
43905;SDS011;29564;46.622;13.818;2023-12-28T04:01:12;1.58;;;1.45;;
43905;SDS011;29564;46.622;13.818;2023-12-28T04:02:13;5.60;;;2.35;;
43905;SDS011;29564;46.622;13.818;2023-12-28T04:03:14;3.10;;;1.50;;
43905;SDS011;29564;46.622;13.818;2023-12-28T04:04:16;3.03;;;2.30;;
43905;SDS011;29564;46.622;13.818;2023-12-28T04:05:17;4.40;;;2.55;;
43905;SDS011;29564;46.622;13.818;2023-12-28T04:06:18;3.55;;;2.38;;
43905;SDS011;29564;46.622;13.818;2023-12-28T04:07:19;4.47;;;1.70;;
43905;SDS011;29564;46.622;13.818;2023-12-28T04:08:21;3.97;;;2.38;;
43905;SDS011;29564;46.622;13.818;2023-12-28T04:09:22;2.30;;;1.55;;
43905;SDS011;29564;46.622;13.818;2023-12-28T04:10:30;2.42;;;1.55;;
43905;SDS011;29564;46.622;13.818;2023-12-28T04:11:32;1.95;;;1.70;;
43905;SDS011;29564;46.622;13.818;2023-12-28T04:12:34;1.85;;;1.35;;
43905;SDS011;29564;46.622;13.818;2023-12-28T04:13:35;3.75;;;1.73;;
43905;SDS011;29564;46.622;13.818;2023-12-28T04:14:37;2.05;;;1.52;;
43905;SDS011;29564;46.622;13.818;2023-12-28T04:15:41;6.05;;;2.15;;
43905;SDS011;29564;46.622;13.818;2023-12-28T04:17:45;2.97;;;1.67;;
43905;SDS011;29564;46.622;13.818;2023-12-28T04:18:46;2.90;;;2.15;;
43905;SDS011;29564;46.622;13.818;2023-12-28T04:19:47;4.18;;;2.53;;
43905;SDS011;29564;46.622;13.818;2023-12-28T04:20:49;6.10;;;2.58;;
43905;SDS011;29564;46.622;13.818;2023-12-28T04:21:50;2.80;;;1.67;;
43905;SDS011;29564;46.622;13.818;2023-12-28T04:22:51;6.90;;;2.67;;
43905;SDS011;29564;46.622;13.818;2023-12-28T04:23:53;3.63;;;2.22;;
43905;SDS011;29564;46.622;13.818;2023-12-28T04:24:54;2.83;;;2.03;;
43905;SDS011;29564;46.622;13.818;2023-12-28T04:25:55;2.60;;;1.95;;
43905;SDS011;29564;46.622;13.818;2023-12-28T04:26:59;5.13;;;1.90;;
43905;SDS011;29564;46.622;13.818;2023-12-28T04:28:00;5.18;;;2.10;;
43905;SDS011;29564;46.622;13.818;2023-12-28T04:29:01;4.47;;;2.00;;
43905;SDS011;29564;46.622;13.818;2023-12-28T04:30:03;8.98;;;2.20;;
43905;SDS011;29564;46.622;13.818;2023-12-28T04:31:06;6.40;;;2.53;;
43905;SDS011;29564;46.622;13.818;2023-12-28T04:32:08;4.68;;;2.80;;
43905;SDS011;29564;46.622;13.818;2023-12-28T04:33:09;4.03;;;2.58;;
43905;SDS011;29564;46.622;13.818;2023-12-28T04:34:10;5.10;;;2.72;;
43905;SDS011;29564;46.622;13.818;2023-12-28T04:35:12;5.45;;;2.28;;
43905;SDS011;29564;46.622;13.818;2023-12-28T04:36:13;5.07;;;2.38;;
43905;SDS011;29564;46.622;13.818;2023-12-28T04:37:14;5.88;;;1.90;;
43905;SDS011;29564;46.622;13.818;2023-12-28T04:38:16;4.22;;;1.90;;
43905;SDS011;29564;46.622;13.818;2023-12-28T04:39:17;5.32;;;2.65;;
43905;SDS011;29564;46.622;13.818;2023-12-28T04:40:18;6.22;;;1.98;;
43905;SDS011;29564;46.622;13.818;2023-12-28T04:41:20;6.10;;;2.47;;
43905;SDS011;29564;46.622;13.818;2023-12-28T04:42:21;4.95;;;2.40;;
43905;SDS011;29564;46.622;13.818;2023-12-28T04:43:22;6.35;;;3.15;;
43905;SDS011;29564;46.622;13.818;2023-12-28T04:44:27;9.43;;;2.63;;
43905;SDS011;29564;46.622;13.818;2023-12-28T04:45:28;3.67;;;2.90;;
43905;SDS011;29564;46.622;13.818;2023-12-28T04:46:30;6.18;;;2.92;;
43905;SDS011;29564;46.622;13.818;2023-12-28T04:47:31;9.75;;;3.30;;
43905;SDS011;29564;46.622;13.818;2023-12-28T04:48:32;9.70;;;2.58;;
43905;SDS011;29564;46.622;13.818;2023-12-28T04:49:33;6.90;;;3.20;;
43905;SDS011;29564;46.622;13.818;2023-12-28T04:50:35;5.13;;;2.67;;
43905;SDS011;29564;46.622;13.818;2023-12-28T04:51:41;7.65;;;2.50;;
43905;SDS011;29564;46.622;13.818;2023-12-28T04:52:45;7.25;;;1.92;;
43905;SDS011;29564;46.622;13.818;2023-12-28T04:53:46;4.40;;;2.40;;
43905;SDS011;29564;46.622;13.818;2023-12-28T04:54:48;2.85;;;1.98;;
43905;SDS011;29564;46.622;13.818;2023-12-28T04:55:49;5.38;;;3.10;;
43905;SDS011;29564;46.622;13.818;2023-12-28T04:56:51;3.58;;;2.00;;
43905;SDS011;29564;46.622;13.818;2023-12-28T04:57:52;3.88;;;2.40;;
43905;SDS011;29564;46.622;13.818;2023-12-28T04:58:53;6.10;;;2.28;;
43905;SDS011;29564;46.622;13.818;2023-12-28T04:59:54;4.25;;;2.75;;
43905;SDS011;29564;46.622;13.818;2023-12-28T05:00:56;5.28;;;3.00;;
43905;SDS011;29564;46.622;13.818;2023-12-28T05:01:57;3.83;;;2.33;;
43905;SDS011;29564;46.622;13.818;2023-12-28T05:02:58;8.40;;;2.95;;
43905;SDS011;29564;46.622;13.818;2023-12-28T05:03:59;8.00;;;2.97;;
43905;SDS011;29564;46.622;13.818;2023-12-28T05:05:01;3.67;;;2.28;;
43905;SDS011;29564;46.622;13.818;2023-12-28T05:06:02;8.43;;;3.15;;
43905;SDS011;29564;46.622;13.818;2023-12-28T05:07:04;7.68;;;2.38;;
43905;SDS011;29564;46.622;13.818;2023-12-28T05:08:05;5.28;;;2.30;;
43905;SDS011;29564;46.622;13.818;2023-12-28T05:09:06;3.60;;;2.22;;
43905;SDS011;29564;46.622;13.818;2023-12-28T05:10:08;10.40;;;2.95;;
43905;SDS011;29564;46.622;13.818;2023-12-28T05:11:09;4.80;;;2.53;;
43905;SDS011;29564;46.622;13.818;2023-12-28T05:12:10;6.00;;;2.90;;
43905;SDS011;29564;46.622;13.818;2023-12-28T05:13:12;6.88;;;3.00;;
43905;SDS011;29564;46.622;13.818;2023-12-28T05:14:13;8.00;;;3.65;;
43905;SDS011;29564;46.622;13.818;2023-12-28T05:15:15;6.35;;;3.15;;
43905;SDS011;29564;46.622;13.818;2023-12-28T05:16:18;7.00;;;3.13;;
43905;SDS011;29564;46.622;13.818;2023-12-28T05:17:20;4.82;;;3.05;;
43905;SDS011;29564;46.622;13.818;2023-12-28T05:18:21;14.65;;;4.20;;
43905;SDS011;29564;46.622;13.818;2023-12-28T05:19:23;7.90;;;3.55;;
43905;SDS011;29564;46.622;13.818;2023-12-28T05:20:24;9.13;;;4.43;;
43905;SDS011;29564;46.622;13.818;2023-12-28T05:21:25;6.05;;;3.47;;
43905;SDS011;29564;46.622;13.818;2023-12-28T05:22:27;8.25;;;4.10;;
43905;SDS011;29564;46.622;13.818;2023-12-28T05:23:28;6.30;;;3.10;;
43905;SDS011;29564;46.622;13.818;2023-12-28T05:24:29;10.88;;;4.20;;
43905;SDS011;29564;46.622;13.818;2023-12-28T05:25:31;6.35;;;3.45;;
43905;SDS011;29564;46.622;13.818;2023-12-28T05:26:32;13.82;;;4.85;;
43905;SDS011;29564;46.622;13.818;2023-12-28T05:27:34;16.80;;;5.50;;
43905;SDS011;29564;46.622;13.818;2023-12-28T05:28:35;11.77;;;5.03;;
43905;SDS011;29564;46.622;13.818;2023-12-28T05:29:36;15.52;;;6.30;;
43905;SDS011;29564;46.622;13.818;2023-12-28T05:30:37;16.23;;;6.53;;
43905;SDS011;29564;46.622;13.818;2023-12-28T05:31:39;9.07;;;5.25;;
43905;SDS011;29564;46.622;13.818;2023-12-28T05:32:40;22.90;;;7.47;;
43905;SDS011;29564;46.622;13.818;2023-12-28T05:33:41;14.65;;;6.03;;
43905;SDS011;29564;46.622;13.818;2023-12-28T05:34:43;15.50;;;7.15;;
43905;SDS011;29564;46.622;13.818;2023-12-28T05:35:44;16.67;;;5.80;;
43905;SDS011;29564;46.622;13.818;2023-12-28T05:36:45;16.83;;;6.35;;
43905;SDS011;29564;46.622;13.818;2023-12-28T05:37:47;16.83;;;6.53;;
43905;SDS011;29564;46.622;13.818;2023-12-28T05:38:48;16.15;;;5.28;;
43905;SDS011;29564;46.622;13.818;2023-12-28T05:39:49;18.48;;;5.63;;
43905;SDS011;29564;46.622;13.818;2023-12-28T05:40:51;20.73;;;6.50;;
43905;SDS011;29564;46.622;13.818;2023-12-28T05:41:52;16.48;;;5.75;;
43905;SDS011;29564;46.622;13.818;2023-12-28T05:42:53;15.25;;;4.93;;
43905;SDS011;29564;46.622;13.818;2023-12-28T05:43:54;13.27;;;5.53;;
43905;SDS011;29564;46.622;13.818;2023-12-28T05:44:56;22.52;;;10.38;;
43905;SDS011;29564;46.622;13.818;2023-12-28T05:45:57;18.48;;;7.78;;
43905;SDS011;29564;46.622;13.818;2023-12-28T05:46:58;23.08;;;8.77;;
43905;SDS011;29564;46.622;13.818;2023-12-28T05:48:00;15.60;;;6.32;;
43905;SDS011;29564;46.622;13.818;2023-12-28T05:49:01;20.15;;;6.75;;
43905;SDS011;29564;46.622;13.818;2023-12-28T05:50:02;19.92;;;7.28;;
43905;SDS011;29564;46.622;13.818;2023-12-28T05:51:06;14.25;;;7.80;;
43905;SDS011;29564;46.622;13.818;2023-12-28T05:52:07;13.82;;;6.57;;
43905;SDS011;29564;46.622;13.818;2023-12-28T05:53:09;9.13;;;5.38;;
43905;SDS011;29564;46.622;13.818;2023-12-28T05:54:14;10.48;;;4.93;;
43905;SDS011;29564;46.622;13.818;2023-12-28T05:55:15;9.02;;;3.03;;
43905;SDS011;29564;46.622;13.818;2023-12-28T05:56:17;2.50;;;1.98;;
43905;SDS011;29564;46.622;13.818;2023-12-28T05:57:18;10.65;;;4.43;;
43905;SDS011;29564;46.622;13.818;2023-12-28T05:58:19;13.68;;;4.72;;
43905;SDS011;29564;46.622;13.818;2023-12-28T05:59:21;8.80;;;3.40;;
43905;SDS011;29564;46.622;13.818;2023-12-28T06:00:22;4.63;;;2.17;;
43905;SDS011;29564;46.622;13.818;2023-12-28T06:01:24;5.40;;;3.10;;
43905;SDS011;29564;46.622;13.818;2023-12-28T06:02:25;7.03;;;3.25;;
43905;SDS011;29564;46.622;13.818;2023-12-28T06:03:26;8.48;;;2.35;;
43905;SDS011;29564;46.622;13.818;2023-12-28T06:04:28;4.53;;;2.40;;
43905;SDS011;29564;46.622;13.818;2023-12-28T06:05:30;5.32;;;2.30;;
43905;SDS011;29564;46.622;13.818;2023-12-28T06:06:31;4.97;;;2.42;;
43905;SDS011;29564;46.622;13.818;2023-12-28T06:07:32;1.35;;;0.73;;
43905;SDS011;29564;46.622;13.818;2023-12-28T06:08:34;2.72;;;1.80;;
43905;SDS011;29564;46.622;13.818;2023-12-28T06:09:36;2.45;;;1.60;;